createdAt,value
2023-05-01T00:00:49.083Z,98904.39
2023-05-01T00:03:21.586Z,98906.10
2023-05-01T00:06:00.446Z,98904.89
2023-05-01T00:08:32.667Z,98904.70
2023-05-01T00:11:09.926Z,98903.45
2023-05-01T00:13:44.449Z,98900.82
2023-05-01T00:16:18.003Z,98902.16
2023-05-01T00:18:50.107Z,98899.97
2023-05-01T00:21:22.202Z,98897.90
2023-05-01T00:23:55.844Z,98895.25
2023-05-01T00:26:31.314Z,98893.36
2023-05-01T00:29:05.214Z,98891.40
2023-05-01T00:31:37.768Z,98889.02
2023-05-01T00:34:09.950Z,98890.48
2023-05-01T00:36:42.479Z,98887.49
2023-05-01T00:39:15.235Z,98888.70
2023-05-01T00:41:47.429Z,98889.06
2023-05-01T00:44:19.565Z,98884.55
2023-05-01T00:46:51.685Z,98888.20
2023-05-01T00:49:23.793Z,98881.44
2023-05-01T00:51:56.107Z,98879.21
2023-05-01T00:54:28.588Z,98874.33
2023-05-01T00:57:01.607Z,98875.05
2023-05-01T00:59:34.546Z,98876.44
2023-05-01T01:02:07.484Z,98874.71
2023-05-01T01:04:40.763Z,98874.60
2023-05-01T01:07:21.949Z,98876.13
2023-05-01T01:10:04.496Z,98877.08
2023-05-01T01:12:50.746Z,98874.89
2023-05-01T01:15:29.860Z,98873.39
2023-05-01T01:18:11.156Z,98873.33
2023-05-01T01:20:51.203Z,98873.54
2023-05-01T01:23:44.553Z,98872.66
2023-05-01T01:26:29.821Z,98872.33
2023-05-01T01:29:24.182Z,98874.21
2023-05-01T01:32:11.034Z,98869.56
2023-05-01T01:34:53.875Z,98869.84
2023-05-01T01:37:30.252Z,98865.64
2023-05-01T01:40:08.592Z,98863.35
2023-05-01T01:42:45.046Z,98860.13
2023-05-01T01:45:23.786Z,98863.75
2023-05-01T01:47:59.100Z,98857.27
2023-05-01T01:50:36.782Z,98856.20
2023-05-01T01:53:12.989Z,98851.97
2023-05-01T01:55:49.108Z,98853.48
2023-05-01T01:58:26.658Z,98847.98
2023-05-01T02:01:00.395Z,98847.55
2023-05-01T02:03:34.194Z,98839.52
2023-05-01T02:06:09.599Z,98838.98
2023-05-01T02:08:43.891Z,98840.79
2023-05-01T02:11:19.165Z,98841.77
2023-05-01T02:13:52.953Z,98839.89
2023-05-01T02:16:28.514Z,98835.05
2023-05-01T02:19:03.903Z,98840.78
2023-05-01T02:21:38.446Z,98841.61
2023-05-01T02:24:11.857Z,98839.19
2023-05-01T02:26:51.674Z,98839.19
2023-05-01T02:29:25.555Z,98837.66
2023-05-01T02:31:57.997Z,98841.25
2023-05-01T02:34:30.806Z,98836.45
2023-05-01T02:37:05.705Z,98837.90
2023-05-01T02:39:38.680Z,98834.70
2023-05-01T02:42:14.030Z,98829.89
2023-05-01T02:44:52.080Z,98831.52
2023-05-01T02:47:27.410Z,98827.73
2023-05-01T02:50:01.796Z,98827.96
2023-05-01T02:52:34.506Z,98825.79
2023-05-01T02:55:29.295Z,98825.95
2023-05-01T02:58:02.528Z,98824.88
2023-05-01T03:00:35.309Z,98821.27
2023-05-01T03:03:07.799Z,98819.39
2023-05-01T03:05:41.105Z,98825.53
2023-05-01T03:08:14.550Z,98822.48
2023-05-01T03:10:46.922Z,98824.58
2023-05-01T03:13:19.292Z,98822.88
2023-05-01T03:15:51.861Z,98819.12
2023-05-01T03:18:26.890Z,98820.64
2023-05-01T03:20:59.478Z,98814.84
2023-05-01T03:23:32.179Z,98810.58
2023-05-01T03:26:04.911Z,98812.96
2023-05-01T03:28:37.303Z,98808.86
2023-05-01T03:31:10.069Z,98810.73
2023-05-01T03:33:42.537Z,98816.87
2023-05-01T03:36:15.015Z,98818.35
2023-05-01T03:38:47.573Z,98813.02
2023-05-01T03:41:38.762Z,98812.41
2023-05-01T03:44:16.790Z,98816.98
2023-05-01T03:46:50.459Z,98810.77
2023-05-01T03:49:27.169Z,98805.02
2023-05-01T03:51:59.516Z,98802.09
2023-05-01T03:54:32.341Z,98810.27
2023-05-01T03:57:17.714Z,98815.20
2023-05-01T03:59:50.781Z,98810.76
2023-05-01T04:02:23.998Z,98808.35
2023-05-01T04:08:11.574Z,98801.45
2023-05-01T04:10:43.834Z,98796.45
2023-05-01T04:13:16.298Z,98795.84
2023-05-01T04:15:48.919Z,98792.74
2023-05-01T04:18:21.163Z,98794.48
2023-05-01T04:20:53.520Z,98795.17
2023-05-01T04:23:25.852Z,98793.45
2023-05-01T04:25:58.873Z,98796.23
2023-05-01T04:28:31.179Z,98796.73
2023-05-01T04:31:03.656Z,98796.54
2023-05-01T04:33:39.822Z,98794.41
2023-05-01T04:36:12.363Z,98799.48
2023-05-01T04:38:44.467Z,98800.88
2023-05-01T04:41:17.135Z,98799.26
2023-05-01T04:43:49.795Z,98800.23
2023-05-01T04:46:24.013Z,98798.78
2023-05-01T04:48:56.238Z,98798.72
2023-05-01T04:51:29.122Z,98802.95
2023-05-01T04:54:01.516Z,98802.86
2023-05-01T04:56:34.027Z,98802.33
2023-05-01T04:59:06.766Z,98807.52
2023-05-01T05:01:39.235Z,98806.23
2023-05-01T05:04:11.878Z,98804.16
2023-05-01T05:06:44.072Z,98810.23
2023-05-01T05:09:20.388Z,98808.21
2023-05-01T05:11:52.721Z,98803.13
2023-05-01T05:14:27.838Z,98806.38
2023-05-01T05:17:03.581Z,98801.12
2023-05-01T05:19:36.079Z,98794.92
2023-05-01T05:22:12.662Z,98790.39
2023-05-01T05:25:04.534Z,98787.10
2023-05-01T05:27:38.376Z,98782.83
2023-05-01T05:30:12.876Z,98770.28
2023-05-01T05:32:45.828Z,98761.09
2023-05-01T05:35:20.617Z,98754.16
2023-05-01T05:37:53.067Z,98752.52
2023-05-01T05:40:25.712Z,98752.73
2023-05-01T05:43:00.885Z,98744.56
2023-05-01T05:45:36.342Z,98738.36
2023-05-01T05:48:09.109Z,98728.59
2023-05-01T05:50:43.804Z,98715.42
2023-05-01T05:53:19.050Z,98706.05
2023-05-01T05:55:51.182Z,98707.72
2023-05-01T05:58:24.730Z,98707.33
2023-05-01T06:00:57.029Z,98705.58
2023-05-01T06:03:29.243Z,98692.58
2023-05-01T06:06:04.286Z,98685.04
2023-05-01T06:08:37.688Z,98673.95
2023-05-01T06:11:12.598Z,98671.99
2023-05-01T06:13:45.060Z,98666.21
2023-05-01T06:16:17.322Z,98676.96
2023-05-01T06:18:49.951Z,98658.29
2023-05-01T06:21:22.063Z,98657.91
2023-05-01T06:23:54.206Z,98669.05
2023-05-01T06:26:33.248Z,98667.79
2023-05-01T06:29:05.506Z,98653.95
2023-05-01T06:31:37.906Z,98666.92
2023-05-01T06:34:10.001Z,98670.35
2023-05-01T06:37:08.639Z,98655.80
2023-05-01T06:39:40.783Z,98625.25
2023-05-01T06:42:16.155Z,98632.91
2023-05-01T06:44:48.964Z,98642.59
2023-05-01T06:47:21.942Z,98588.88
2023-05-01T06:49:54.228Z,98590.20
2023-05-01T06:52:26.808Z,98608.14
2023-05-01T06:54:58.888Z,98580.77
2023-05-01T06:57:31.166Z,98578.67
2023-05-01T07:00:03.415Z,98562.43
2023-05-01T07:02:37.348Z,98537.71
2023-05-01T07:05:10.531Z,98548.89
2023-05-01T07:07:50.453Z,98507.83
2023-05-01T07:10:30.900Z,98500.34
2023-05-01T07:13:03.970Z,98512.59
2023-05-01T07:15:36.286Z,98485.83
2023-05-01T07:18:09.144Z,98469.88
2023-05-01T07:20:41.277Z,98478.36
2023-05-01T07:23:13.341Z,98457.09
2023-05-01T07:25:46.462Z,98454.30
2023-05-01T07:28:20.610Z,98454.76
2023-05-01T07:30:52.653Z,98473.27
2023-05-01T07:33:26.086Z,98462.57
2023-05-01T07:35:58.244Z,98449.53
2023-05-01T07:38:30.274Z,98450.79
2023-05-01T07:41:02.357Z,98462.79
2023-05-01T07:43:34.473Z,98455.17
2023-05-01T07:46:07.260Z,98452.84
2023-05-01T07:48:40.091Z,98453.73
2023-05-01T07:51:12.201Z,98446.50
2023-05-01T07:53:44.431Z,98418.75
2023-05-01T07:56:16.759Z,98406.95
2023-05-01T07:58:48.953Z,98425.05
2023-05-01T08:01:21.165Z,98426.92
2023-05-01T08:03:53.511Z,98418.09
2023-05-01T08:06:28.432Z,98404.06
2023-05-01T08:09:01.183Z,98390.09
2023-05-01T08:11:33.640Z,98386.10
2023-05-01T08:14:12.278Z,98378.86
2023-05-01T08:16:47.509Z,98396.83
2023-05-01T08:19:28.056Z,98379.20
2023-05-01T08:22:00.693Z,98353.31
2023-05-01T08:24:32.938Z,98368.88
2023-05-01T08:27:05.054Z,98381.48
2023-05-01T08:29:37.193Z,98348.22
2023-05-01T08:32:09.367Z,98338.91
2023-05-01T08:34:41.786Z,98349.47
2023-05-01T08:37:16.212Z,98356.71
2023-05-01T08:39:48.307Z,98353.77
2023-05-01T08:42:21.392Z,98350.27
2023-05-01T08:44:55.781Z,98321.39
2023-05-01T08:47:30.553Z,98314.10
2023-05-01T08:50:04.830Z,98334.49
2023-05-01T08:52:40.205Z,98346.98
2023-05-01T08:55:15.748Z,98349.46
2023-05-01T08:57:49.418Z,98337.59
2023-05-01T09:00:23.197Z,98341.10
2023-05-01T09:02:55.461Z,98317.46
2023-05-01T09:05:29.637Z,98318.86
2023-05-01T09:08:02.277Z,98310.39
2023-05-01T09:10:40.799Z,98306.99
2023-05-01T09:13:12.952Z,98304.63
2023-05-01T09:15:45.777Z,98324.47
2023-05-01T09:18:18.082Z,98313.63
2023-05-01T09:20:50.294Z,98298.21
2023-05-01T09:23:22.429Z,98301.62
2023-05-01T09:25:55.703Z,98313.52
2023-05-01T09:28:48.074Z,98325.73
2023-05-01T09:31:29.866Z,98332.91
2023-05-01T09:34:03.252Z,98339.73
2023-05-01T09:36:37.154Z,98334.44
2023-05-01T09:39:09.620Z,98348.45
2023-05-01T09:41:53.575Z,98359.02
2023-05-01T09:44:25.693Z,98359.13
2023-05-01T09:46:58.165Z,98360.86
2023-05-01T09:49:49.947Z,98359.48
2023-05-01T09:52:22.312Z,98356.96
2023-05-01T09:55:15.010Z,98343.95
2023-05-01T09:57:51.348Z,98330.12
2023-05-01T10:00:23.813Z,98327.81
2023-05-01T10:02:59.376Z,98331.67
2023-05-01T10:05:45.430Z,98337.04
2023-05-01T10:08:20.848Z,98350.37
2023-05-01T10:11:05.799Z,98343.36
2023-05-01T10:13:38.848Z,98329.81
2023-05-01T10:16:31.579Z,98327.82
2023-05-01T10:19:04.523Z,98317.13
2023-05-01T10:21:37.167Z,98315.42
2023-05-01T10:24:10.266Z,98314.38
2023-05-01T10:26:43.084Z,98321.40
2023-05-01T10:29:15.930Z,98301.71
2023-05-01T10:31:48.123Z,98305.02
2023-05-01T10:34:23.825Z,98298.45
2023-05-01T10:37:01.996Z,98301.45
2023-05-01T10:39:35.196Z,98287.73
2023-05-01T10:42:14.804Z,98289.44
2023-05-01T10:44:48.099Z,98293.00
2023-05-01T10:47:47.547Z,98294.86
2023-05-01T10:50:19.709Z,98290.85
2023-05-01T10:53:20.457Z,98267.37
2023-05-01T10:55:52.740Z,98274.58
2023-05-01T10:59:00.920Z,98281.27
2023-05-01T11:01:38.121Z,98277.82
2023-05-01T11:04:30.705Z,98280.58
2023-05-01T11:07:19.235Z,98275.70
2023-05-01T11:09:55.359Z,98278.64
2023-05-01T11:12:51.234Z,98278.08
2023-05-01T11:15:31.080Z,98254.31
2023-05-01T11:18:06.239Z,98257.88
2023-05-01T11:20:51.678Z,98252.95
2023-05-01T11:23:25.727Z,98254.33
2023-05-01T11:26:09.565Z,98259.19
2023-05-01T11:28:42.903Z,98257.38
2023-05-01T11:31:19.812Z,98247.57
2023-05-01T11:33:52.506Z,98251.23
2023-05-01T11:36:24.853Z,98247.40
2023-05-01T11:38:58.596Z,98249.02
2023-05-01T11:41:31.807Z,98241.13
2023-05-01T11:44:05.360Z,98230.50
2023-05-01T11:46:37.509Z,98233.04
2023-05-01T11:49:09.849Z,98232.45
2023-05-01T11:51:42.195Z,98217.74
2023-05-01T11:54:15.801Z,98204.34
2023-05-01T11:56:48.832Z,98209.18
2023-05-01T11:59:21.094Z,98217.12
2023-05-01T12:01:53.564Z,98219.80
2023-05-01T12:04:32.341Z,98221.88
2023-05-01T12:07:04.979Z,98208.05
2023-05-01T12:09:37.645Z,98199.80
2023-05-01T12:12:10.025Z,98199.02
2023-05-01T12:14:42.625Z,98193.31
2023-05-01T12:17:14.846Z,98204.52
2023-05-01T12:19:51.186Z,98196.92
2023-05-01T12:22:23.303Z,98183.79
2023-05-01T12:24:56.070Z,98177.16
2023-05-01T12:27:28.649Z,98176.76
2023-05-01T12:30:00.862Z,98185.93
2023-05-01T12:32:35.209Z,98181.71
2023-05-01T12:35:17.497Z,98179.75
2023-05-01T12:37:49.911Z,98181.69
2023-05-01T12:40:23.024Z,98194.88
2023-05-01T12:43:01.982Z,98191.30
2023-05-01T12:45:41.727Z,98195.27
2023-05-01T12:48:15.684Z,98206.05
2023-05-01T12:50:54.277Z,98181.44
2023-05-01T12:53:29.108Z,98196.15
2023-05-01T12:56:03.353Z,98198.08
2023-05-01T12:58:40.077Z,98203.05
2023-05-01T13:01:15.082Z,98203.30
2023-05-01T13:03:47.462Z,98201.89
2023-05-01T13:06:19.791Z,98200.65
2023-05-01T13:08:53.079Z,98195.33
2023-05-01T13:11:29.072Z,98194.27
2023-05-01T13:14:09.885Z,98195.61
2023-05-01T13:16:48.878Z,98204.13
2023-05-01T13:19:31.608Z,98210.95
2023-05-01T13:22:04.207Z,98202.64
2023-05-01T13:24:41.426Z,98206.11
2023-05-01T13:27:14.260Z,98210.48
2023-05-01T13:29:58.063Z,98211.62
2023-05-01T13:32:30.624Z,98200.02
2023-05-01T13:35:05.389Z,98196.48
2023-05-01T13:37:38.030Z,98197.10
2023-05-01T13:40:12.536Z,98194.80
2023-05-01T13:42:44.677Z,98192.84
2023-05-01T13:45:22.252Z,98197.67
2023-05-01T13:47:55.440Z,98200.14
2023-05-01T13:50:27.720Z,98207.17
2023-05-01T13:52:59.786Z,98197.21
2023-05-01T13:55:32.688Z,98196.10
2023-05-01T13:58:04.794Z,98185.86
2023-05-01T14:00:37.344Z,98185.11
2023-05-01T14:03:13.718Z,98188.96
2023-05-01T14:05:46.407Z,98186.95
2023-05-01T14:08:21.246Z,98186.70
2023-05-01T14:10:53.431Z,98186.30
2023-05-01T14:13:28.097Z,98186.02
2023-05-01T14:16:00.239Z,98177.61
2023-05-01T14:18:33.097Z,98173.55
2023-05-01T14:21:05.443Z,98160.73
2023-05-01T14:23:42.233Z,98157.73
2023-05-01T14:26:18.476Z,98157.63
2023-05-01T14:28:50.974Z,98159.92
2023-05-01T14:31:30.539Z,98164.92
2023-05-01T14:34:04.161Z,98157.92
2023-05-01T14:36:36.448Z,98157.93
2023-05-01T14:39:08.743Z,98153.73
2023-05-01T14:41:43.331Z,98147.29
2023-05-01T14:44:17.272Z,98155.55
2023-05-01T14:46:51.904Z,98154.16
2023-05-01T14:49:25.825Z,98150.98
2023-05-01T14:51:57.841Z,98150.36
2023-05-01T14:54:37.359Z,98150.11
2023-05-01T14:57:10.794Z,98146.44
2023-05-01T14:59:42.836Z,98139.84
2023-05-01T15:02:14.897Z,98127.94
2023-05-01T15:04:47.486Z,98130.19
2023-05-01T15:07:19.573Z,98137.86
2023-05-01T15:09:51.913Z,98138.86
2023-05-01T15:12:23.954Z,98140.02
2023-05-01T15:14:56.592Z,98141.62
2023-05-01T15:17:30.444Z,98135.13
2023-05-01T15:20:03.925Z,98138.98
2023-05-01T15:22:36.207Z,98136.59
2023-05-01T15:25:10.856Z,98130.64
2023-05-01T15:27:45.281Z,98132.14
2023-05-01T15:30:18.700Z,98120.19
2023-05-01T15:32:51.872Z,98121.45
2023-05-01T15:35:24.474Z,98124.33
2023-05-01T15:37:57.736Z,98123.70
2023-05-01T15:40:29.852Z,98124.13
2023-05-01T15:43:04.026Z,98122.92
2023-05-01T15:45:36.200Z,98120.23
2023-05-01T15:48:08.461Z,98123.24
2023-05-01T15:50:41.063Z,98123.05
2023-05-01T15:53:13.148Z,98117.27
2023-05-01T15:55:45.320Z,98119.69
2023-05-01T15:58:19.161Z,98118.72
2023-05-01T16:00:51.847Z,98111.23
2023-05-01T16:03:25.922Z,98108.29
2023-05-01T16:05:58.136Z,98109.91
2023-05-01T16:08:30.407Z,98113.41
2023-05-01T16:11:02.734Z,98110.95
2023-05-01T16:13:40.330Z,98112.77
2023-05-01T16:16:14.561Z,98113.82
2023-05-01T16:18:46.906Z,98116.69
2023-05-01T16:21:19.952Z,98120.49
2023-05-01T16:23:53.988Z,98125.48
2023-05-01T16:26:28.483Z,98124.88
2023-05-01T16:29:03.000Z,98128.17
2023-05-01T16:31:39.779Z,98129.74
2023-05-01T16:34:14.452Z,98135.77
2023-05-01T16:36:47.798Z,98137.55
2023-05-01T16:39:22.025Z,98139.30
2023-05-01T16:41:55.883Z,98135.98
2023-05-01T16:44:27.953Z,98133.72
2023-05-01T16:47:00.888Z,98134.77
2023-05-01T16:49:32.993Z,98135.70
2023-05-01T16:52:05.249Z,98138.33
2023-05-01T16:54:40.128Z,98142.84
2023-05-01T16:57:15.409Z,98144.09
2023-05-01T16:59:47.464Z,98147.30
2023-05-01T17:02:19.592Z,98149.70
2023-05-01T17:04:51.899Z,98158.50
2023-05-01T17:07:25.836Z,98158.09
2023-05-01T17:09:59.035Z,98161.74
2023-05-01T17:12:31.463Z,98159.11
2023-05-01T17:15:04.830Z,98162.30
2023-05-01T17:17:37.799Z,98159.22
2023-05-01T17:20:12.041Z,98158.83
2023-05-01T17:22:44.672Z,98163.45
2023-05-01T17:25:16.882Z,98163.52
2023-05-01T17:27:49.059Z,98164.97
2023-05-01T17:30:21.915Z,98165.16
2023-05-01T17:32:54.168Z,98165.36
2023-05-01T17:35:26.449Z,98162.66
2023-05-01T17:37:58.713Z,98163.68
2023-05-01T17:40:32.336Z,98164.86
2023-05-01T17:43:04.582Z,98165.46
2023-05-01T17:45:37.045Z,98167.77
2023-05-01T17:48:10.957Z,98169.56
2023-05-01T17:50:43.086Z,98164.92
2023-05-01T17:53:15.648Z,98164.96
2023-05-01T17:55:47.839Z,98166.58
2023-05-01T17:58:20.625Z,98166.60
2023-05-01T18:00:55.436Z,98170.05
2023-05-01T18:03:28.938Z,98182.35
2023-05-01T18:06:02.266Z,98182.48
2023-05-01T18:08:34.470Z,98180.96
2023-05-01T18:11:06.693Z,98184.20
2023-05-01T18:13:40.051Z,98187.30
2023-05-01T18:16:12.410Z,98190.98
2023-05-01T18:18:44.609Z,98195.02
2023-05-01T18:21:17.263Z,98192.92
2023-05-01T18:23:49.404Z,98195.27
2023-05-01T18:26:21.417Z,98200.21
2023-05-01T18:28:53.492Z,98199.22
2023-05-01T18:31:28.815Z,98203.48
2023-05-01T18:34:01.683Z,98198.64
2023-05-01T18:36:34.111Z,98205.66
2023-05-01T18:39:06.436Z,98206.16
2023-05-01T18:41:38.611Z,98210.05
2023-05-01T18:44:11.406Z,98211.13
2023-05-01T18:46:43.544Z,98215.91
2023-05-01T18:49:15.939Z,98213.73
2023-05-01T18:51:49.035Z,98220.15
2023-05-01T18:54:24.521Z,98225.08
2023-05-01T18:56:56.743Z,98228.31
2023-05-01T18:59:31.123Z,98228.41
2023-05-01T19:02:04.351Z,98233.65
2023-05-01T19:04:55.965Z,98240.49
2023-05-01T19:07:29.218Z,98241.61
2023-05-01T19:10:01.748Z,98248.17
2023-05-01T19:12:34.091Z,98252.11
2023-05-01T19:15:07.162Z,98253.21
2023-05-01T19:17:39.748Z,98255.25
2023-05-01T19:20:13.252Z,98257.20
2023-05-01T19:22:45.621Z,98262.11
2023-05-01T19:25:18.175Z,98261.61
2023-05-01T19:27:52.798Z,98262.36
2023-05-01T19:30:35.011Z,98263.64
2023-05-01T19:33:16.107Z,98268.45
2023-05-01T19:36:00.257Z,98271.35
2023-05-01T19:38:35.446Z,98275.48
2023-05-01T19:41:16.886Z,98273.29
2023-05-01T19:47:08.666Z,98283.63
2023-05-01T19:49:46.636Z,98286.38
2023-05-01T19:52:21.160Z,98291.41
2023-05-01T19:54:56.020Z,98291.52
2023-05-01T19:57:30.759Z,98291.25
2023-05-01T20:00:06.812Z,98294.29
2023-05-01T20:02:42.632Z,98290.08
2023-05-01T20:05:19.189Z,98292.11
2023-05-01T20:07:51.844Z,98294.64
2023-05-01T20:10:24.302Z,98292.44
2023-05-01T20:12:56.642Z,98296.58
2023-05-01T20:15:28.923Z,98297.27
2023-05-01T20:18:01.510Z,98298.62
2023-05-01T20:20:35.092Z,98301.24
2023-05-01T20:23:17.626Z,98300.94
2023-05-01T20:25:51.794Z,98297.11
2023-05-01T20:28:24.206Z,98298.21
2023-05-01T20:30:56.506Z,98299.89
2023-05-01T20:33:28.655Z,98303.83
2023-05-01T20:36:00.780Z,98301.44
2023-05-01T20:38:33.063Z,98302.11
2023-05-01T20:41:05.306Z,98307.89
2023-05-01T20:43:39.804Z,98310.76
2023-05-01T20:46:11.947Z,98317.38
2023-05-01T20:48:45.228Z,98316.55
2023-05-01T20:51:18.652Z,98318.14
2023-05-01T20:53:51.047Z,98320.09
2023-05-01T20:56:23.784Z,98320.34
2023-05-01T20:58:56.047Z,98326.61
2023-05-01T21:01:30.742Z,98331.77
2023-05-01T21:04:04.722Z,98337.95
2023-05-01T21:06:37.062Z,98334.65
2023-05-01T21:09:15.430Z,98338.83
2023-05-01T21:11:47.621Z,98344.16
2023-05-01T21:14:19.838Z,98349.57
2023-05-01T21:16:52.097Z,98352.65
2023-05-01T21:19:27.299Z,98349.25
2023-05-01T21:22:01.675Z,98350.29
2023-05-01T21:24:35.467Z,98349.34
2023-05-01T21:27:09.347Z,98352.40
2023-05-01T21:29:44.486Z,98353.12
2023-05-01T21:32:17.709Z,98353.55
2023-05-01T21:34:55.718Z,98352.39
2023-05-01T21:37:30.561Z,98352.91
2023-05-01T21:40:07.488Z,98352.56
2023-05-01T21:42:41.938Z,98356.50
2023-05-01T21:45:19.239Z,98358.45
2023-05-01T21:47:52.691Z,98360.54
2023-05-01T21:50:25.010Z,98362.43
2023-05-01T21:53:02.091Z,98364.36
2023-05-01T21:55:34.756Z,98369.29
2023-05-01T21:58:07.064Z,98370.98
2023-05-01T22:00:41.775Z,98371.27
2023-05-01T22:03:17.739Z,98373.37
2023-05-01T22:05:50.892Z,98374.86
2023-05-01T22:08:23.693Z,98375.95
2023-05-01T22:10:55.945Z,98374.00
2023-05-01T22:13:33.407Z,98374.24
2023-05-01T22:16:08.144Z,98373.51
2023-05-01T22:18:40.292Z,98375.32
2023-05-01T22:21:12.486Z,98375.56
2023-05-01T22:23:44.652Z,98374.86
2023-05-01T22:26:16.789Z,98372.17
2023-05-01T22:28:49.802Z,98371.38
2023-05-01T22:31:22.023Z,98366.11
2023-05-01T22:33:55.348Z,98365.98
2023-05-01T22:36:27.551Z,98363.72
2023-05-01T22:38:59.661Z,98364.28
2023-05-01T22:41:34.784Z,98365.60
2023-05-01T22:44:07.510Z,98366.91
2023-05-01T22:46:39.729Z,98364.69
2023-05-01T22:49:12.123Z,98358.77
2023-05-01T22:51:44.292Z,98357.44
2023-05-01T22:54:16.458Z,98355.83
2023-05-01T22:56:50.099Z,98353.38
2023-05-01T22:59:22.989Z,98349.85
2023-05-01T23:01:55.262Z,98349.45
2023-05-01T23:04:27.445Z,98346.69
2023-05-01T23:07:00.254Z,98343.27
2023-05-01T23:09:34.502Z,98344.69
2023-05-01T23:12:07.379Z,98341.66
2023-05-01T23:14:46.659Z,98342.12
2023-05-01T23:17:19.156Z,98338.91
2023-05-01T23:19:58.664Z,98333.55
2023-05-01T23:22:33.046Z,98330.28
2023-05-01T23:25:06.363Z,98333.20
2023-05-01T23:27:43.966Z,98327.51
2023-05-01T23:30:21.158Z,98327.22
2023-05-01T23:32:53.440Z,98326.75
2023-05-01T23:35:25.724Z,98323.20
2023-05-01T23:37:57.907Z,98323.98
2023-05-01T23:40:30.296Z,98323.92
2023-05-01T23:43:02.597Z,98318.35
2023-05-01T23:45:34.853Z,98318.05
2023-05-01T23:48:08.118Z,98319.16
2023-05-01T23:50:43.298Z,98314.85
2023-05-01T23:53:16.641Z,98311.80
2023-05-01T23:55:49.022Z,98310.08
2023-05-01T23:58:21.300Z,98308.81
